Time;durP1;ratioP1;P1;durP2;ratioP2;P2;SDS_P1;SDS_P2;PMS_P1;PMS_P2;Temp;Humidity;BMP_temperature;BMP_pressure;BME280_temperature;BME280_humidity;BME280_pressure;Samples;Min_cycle;Max_cycle;Signal;HPM_P1;HPM_P2
2021/11/26 00:02:23;;;;;;;;;33.00;30.00;;;;;;;;5143830;27;12522;-79
2021/11/26 00:04:49;;;;;;;;;32.67;29.00;;;;;;;;5143381;27;9338;-80
2021/11/26 00:07:14;;;;;;;;;30.67;29.00;;;;;;;;5142566;27;12875;-79
2021/11/26 00:09:40;;;;;;;;;30.00;27.50;;;;;;;;5142596;27;11471;-79
2021/11/26 00:12:05;;;;;;;;;24.25;22.00;;;;;;;;5143941;27;10833;-79
2021/11/26 00:14:34;;;;;;;;;28.25;28.25;;;;;;;;5143165;27;14712;-78
2021/11/26 00:16:59;;;;;;;;;25.67;23.33;;;;;;;;5142623;27;11968;-79
2021/11/26 00:19:25;;;;;;;;;31.33;29.67;;;;;;;;5142356;27;12250;-79
2021/11/26 00:21:51;;;;;;;;;29.00;25.67;;;;;;;;5143488;27;13214;-79
2021/11/26 00:24:17;;;;;;;;;29.33;24.67;;;;;;;;5143221;27;12283;-80
2021/11/26 00:26:44;;;;;;;;;32.00;29.00;;;;;;;;5142664;27;11399;-80
2021/11/26 00:29:09;;;;;;;;;33.33;27.00;;;;;;;;5142715;27;13379;-80
2021/11/26 00:31:35;;;;;;;;;30.33;29.00;;;;;;;;5142279;27;11488;-80
2021/11/26 00:34:00;;;;;;;;;28.25;25.25;;;;;;;;5143221;27;8772;-79
2021/11/26 00:36:25;;;;;;;;;26.00;21.00;;;;;;;;5142776;27;13438;-79
2021/11/26 00:38:50;;;;;;;;;26.00;24.75;;;;;;;;5143015;27;12102;-80
2021/11/26 00:41:16;;;;;;;;;26.67;26.00;;;;;;;;5142641;27;10156;-81
2021/11/26 00:43:43;;;;;;;;;27.75;26.50;;;;;;;;5142906;27;10489;-80
2021/11/26 00:46:08;;;;;;;;;24.33;21.33;;;;;;;;5142457;27;11996;-80
2021/11/26 00:48:34;;;;;;;;;26.75;24.75;;;;;;;;5123419;27;11771;-79
2021/11/26 00:50:59;;;;;;;;;30.00;25.67;;;;;;;;5142192;27;10528;-78
2021/11/26 00:53:24;;;;;;;;;31.33;28.00;;;;;;;;5142727;27;14810;-79
2021/11/26 00:55:50;;;;;;;;;23.33;23.33;;;;;;;;5143174;27;11426;-79
2021/11/26 00:58:15;;;;;;;;;27.00;22.50;;;;;;;;5142739;27;13384;-78
2021/11/26 01:00:40;;;;;;;;;25.25;24.75;;;;;;;;5143041;27;11395;-80
2021/11/26 01:03:06;;;;;;;;;26.00;24.00;;;;;;;;5142657;27;11777;-80
2021/11/26 01:05:31;;;;;;;;;26.00;22.75;;;;;;;;5142360;27;11560;-80
2021/11/26 01:07:57;;;;;;;;;24.50;23.00;;;;;;;;5141711;27;8914;-80
2021/11/26 01:10:23;;;;;;;;;25.75;24.00;;;;;;;;5142020;27;11400;-79
2021/11/26 01:12:49;;;;;;;;;26.50;24.00;;;;;;;;5142342;27;10417;-79
2021/11/26 01:15:16;;;;;;;;;21.25;21.25;;;;;;;;5123793;27;11527;-79
2021/11/26 01:17:42;;;;;;;;;25.25;23.75;;;;;;;;5142113;27;11561;-79
2021/11/26 01:20:09;;;;;;;;;30.75;23.75;;;;;;;;5141926;27;11515;-80
2021/11/26 01:22:34;;;;;;;;;24.50;21.75;;;;;;;;5142403;27;11406;-80
2021/11/26 01:25:00;;;;;;;;;21.50;20.00;;;;;;;;5142478;27;12188;-79
2021/11/26 01:27:25;;;;;;;;;22.50;22.00;;;;;;;;5141908;27;11551;-80
2021/11/26 01:29:50;;;;;;;;;21.75;21.75;;;;;;;;5142138;27;8808;-79
2021/11/26 01:32:16;;;;;;;;;26.33;23.67;;;;;;;;5142299;27;11359;-79
2021/11/26 01:34:41;;;;;;;;;24.25;22.25;;;;;;;;5142203;27;11514;-78
2021/11/26 01:37:06;;;;;;;;;26.75;24.00;;;;;;;;5123146;27;13992;-80
2021/11/26 01:39:32;;;;;;;;;24.50;23.25;;;;;;;;5141950;27;11441;-80
2021/11/26 01:41:57;;;;;;;;;22.75;21.25;;;;;;;;5141582;27;11426;-79
2021/11/26 01:44:23;;;;;;;;;27.25;23.50;;;;;;;;5141823;27;10493;-79
2021/11/26 01:46:49;;;;;;;;;21.00;20.00;;;;;;;;5141654;27;11538;-81
2021/11/26 01:49:15;;;;;;;;;20.00;19.50;;;;;;;;5142293;27;11661;-79
2021/11/26 01:51:40;;;;;;;;;28.50;21.00;;;;;;;;5141776;27;12411;-79
2021/11/26 01:54:06;;;;;;;;;26.00;21.25;;;;;;;;5142358;27;12200;-79
2021/11/26 01:56:32;;;;;;;;;29.00;24.00;;;;;;;;5141895;27;11795;-80
2021/11/26 01:58:57;;;;;;;;;24.75;23.50;;;;;;;;5141177;27;12150;-80
2021/11/26 02:01:23;;;;;;;;;25.75;23.25;;;;;;;;5141109;27;11400;-80
2021/11/26 02:03:48;;;;;;;;;25.25;24.25;;;;;;;;5141669;27;11375;-81
2021/11/26 02:06:14;;;;;;;;;25.25;22.75;;;;;;;;5142099;27;8853;-80
2021/11/26 02:08:39;;;;;;;;;22.00;21.50;;;;;;;;5141164;27;8816;-79
2021/11/26 02:11:05;;;;;;;;;25.75;23.00;;;;;;;;5141654;27;11394;-80
2021/11/26 02:13:30;;;;;;;;;20.75;20.25;;;;;;;;5141418;27;11444;-79
2021/11/26 02:15:59;;;;;;;;;29.25;22.75;;;;;;;;5141492;27;11421;-78
2021/11/26 02:18:24;;;;;;;;;33.00;27.33;;;;;;;;5140795;27;10698;-79
2021/11/26 02:20:49;;;;;;;;;27.00;24.00;;;;;;;;5141441;27;12184;-78
2021/11/26 02:23:15;;;;;;;;;24.67;22.67;;;;;;;;5141408;27;13234;-79
2021/11/26 02:25:40;;;;;;;;;13.00;9.67;;;;;;;;5141320;27;11388;-79
2021/11/26 02:28:09;;;;;;;;;32.00;28.00;;;;;;;;5140893;27;23100;-78
2021/11/26 02:30:35;;;;;;;;;26.33;26.33;;;;;;;;5141001;27;23808;-79
2021/11/26 02:33:06;;;;;;;;;27.33;24.00;;;;;;;;5141149;27;13263;-79
2021/11/26 02:35:32;;;;;;;;;25.75;22.00;;;;;;;;5141397;27;11531;-79
2021/11/26 02:37:58;;;;;;;;;18.33;14.00;;;;;;;;5141113;27;11455;-79
2021/11/26 02:40:25;;;;;;;;;25.33;23.00;;;;;;;;5140929;27;11464;-79
2021/11/26 02:42:51;;;;;;;;;26.00;24.00;;;;;;;;5140886;27;10731;-78
2021/11/26 02:45:17;;;;;;;;;27.67;23.67;;;;;;;;5140353;27;11015;-78
2021/11/26 02:47:42;;;;;;;;;24.67;21.00;;;;;;;;5141268;27;11609;-79
2021/11/26 02:50:09;;;;;;;;;27.00;27.00;;;;;;;;5140981;27;11387;-78
2021/11/26 02:52:35;;;;;;;;;24.00;22.25;;;;;;;;5140694;27;10689;-80
2021/11/26 02:55:00;;;;;;;;;27.00;27.00;;;;;;;;5140471;27;11425;-81
2021/11/26 02:57:26;;;;;;;;;28.00;25.33;;;;;;;;5140548;27;11370;-81
2021/11/26 02:59:51;;;;;;;;;26.33;23.00;;;;;;;;5140556;27;11384;-79
2021/11/26 03:02:16;;;;;;;;;32.67;24.33;;;;;;;;5140080;27;11388;-82
2021/11/26 03:04:42;;;;;;;;;24.67;24.67;;;;;;;;5141441;27;13342;-80
2021/11/26 03:07:09;;;;;;;;;24.00;24.00;;;;;;;;5140948;27;13602;-79
2021/11/26 03:09:34;;;;;;;;;24.67;23.00;;;;;;;;5140249;27;8811;-80
2021/11/26 03:11:59;;;;;;;;;21.67;19.67;;;;;;;;5140763;27;11430;-79
2021/11/26 03:14:25;;;;;;;;;30.00;23.67;;;;;;;;5140355;27;12416;-79
2021/11/26 03:16:50;;;;;;;;;28.67;26.33;;;;;;;;5139724;27;12376;-79
2021/11/26 03:19:16;;;;;;;;;27.67;26.67;;;;;;;;5140432;27;13228;-79
2021/11/26 03:21:41;;;;;;;;;27.33;27.33;;;;;;;;5140413;27;11531;-79
2021/11/26 03:24:07;;;;;;;;;28.33;27.67;;;;;;;;5140781;27;10340;-79
2021/11/26 03:26:32;;;;;;;;;24.00;23.00;;;;;;;;5141110;27;11373;-78
2021/11/26 03:28:58;;;;;;;;;25.33;21.33;;;;;;;;5140351;27;11461;-80
2021/11/26 03:31:23;;;;;;;;;24.67;24.67;;;;;;;;5143736;27;11545;-79
2021/11/26 03:33:48;;;;;;;;;26.33;24.00;;;;;;;;5143836;27;11663;-79
2021/11/26 03:36:14;;;;;;;;;24.33;23.00;;;;;;;;5144621;27;11396;-79
2021/11/26 03:38:39;;;;;;;;;24.00;24.00;;;;;;;;5145709;27;9445;-80
2021/11/26 03:41:04;;;;;;;;;24.00;22.33;;;;;;;;5144781;27;9549;-81
2021/11/26 03:43:30;;;;;;;;;27.33;23.00;;;;;;;;5143761;27;8988;-73
2021/11/26 03:45:55;;;;;;;;;30.00;27.67;;;;;;;;5143277;27;11896;-76
2021/11/26 03:48:20;;;;;;;;;31.67;30.33;;;;;;;;5143339;27;13210;-76
2021/11/26 03:50:46;;;;;;;;;28.67;26.67;;;;;;;;5143090;27;12194;-76
2021/11/26 03:53:11;;;;;;;;;29.33;24.33;;;;;;;;5143191;27;13364;-76
2021/11/26 03:55:36;;;;;;;;;28.00;26.00;;;;;;;;5123849;27;11798;-79
2021/11/26 03:58:02;;;;;;;;;28.00;26.00;;;;;;;;5134377;27;11739;-79
2021/11/26 04:00:28;;;;;;;;;30.67;24.67;;;;;;;;5122147;28;8776;-84
2021/11/26 04:02:53;;;;;;;;;32.00;24.00;;;;;;;;5111198;28;13455;-86
2021/11/26 04:05:18;;;;;;;;;27.33;26.33;;;;;;;;5122820;28;12855;-85
2021/11/26 04:07:44;;;;;;;;;27.33;24.00;;;;;;;;5121438;28;13246;-84
2021/11/26 04:10:10;;;;;;;;;28.33;28.00;;;;;;;;5123772;28;9057;-84
2021/11/26 04:12:36;;;;;;;;;30.00;27.00;;;;;;;;5122505;28;8843;-84
2021/11/26 04:15:05;;;;;;;;;23.67;23.00;;;;;;;;5121769;28;12907;-87
2021/11/26 04:17:30;;;;;;;;;34.33;27.00;;;;;;;;5122896;28;12653;-85
2021/11/26 04:19:56;;;;;;;;;27.33;26.67;;;;;;;;5120511;28;12986;-84
2021/11/26 04:22:21;;;;;;;;;24.33;24.33;;;;;;;;5123398;28;13205;-85
2021/11/26 04:24:46;;;;;;;;;23.67;23.00;;;;;;;;5123096;28;11548;-86
2021/11/26 04:27:12;;;;;;;;;24.00;24.00;;;;;;;;5124211;28;11591;-84
2021/11/26 04:29:37;;;;;;;;;28.33;25.00;;;;;;;;5123895;28;10562;-85
2021/11/26 04:32:02;;;;;;;;;20.67;16.33;;;;;;;;5123372;28;10778;-84
2021/11/26 04:34:28;;;;;;;;;26.33;26.00;;;;;;;;5104949;28;14175;-84
2021/11/26 04:36:53;;;;;;;;;31.33;29.67;;;;;;;;5123135;28;12344;-85
2021/11/26 04:39:18;;;;;;;;;29.33;26.67;;;;;;;;5122590;28;13427;-84
2021/11/26 04:41:44;;;;;;;;;23.67;22.33;;;;;;;;5122971;27;10491;-87
2021/11/26 04:44:09;;;;;;;;;28.67;27.67;;;;;;;;5123048;28;13205;-86
2021/11/26 04:46:34;;;;;;;;;29.33;27.67;;;;;;;;5123035;28;11340;-86
2021/11/26 04:49:00;;;;;;;;;30.67;30.67;;;;;;;;5122889;28;9976;-87
2021/11/26 04:51:25;;;;;;;;;32.00;25.67;;;;;;;;5122337;28;12320;-86
2021/11/26 04:53:50;;;;;;;;;30.00;27.67;;;;;;;;5122299;28;11786;-87
2021/11/26 04:56:16;;;;;;;;;33.33;31.00;;;;;;;;5123472;28;8845;-86
2021/11/26 04:58:41;;;;;;;;;21.33;21.00;;;;;;;;5122825;28;12596;-84
2021/11/26 05:01:07;;;;;;;;;24.67;22.33;;;;;;;;5103676;28;9709;-85
2021/11/26 05:03:32;;;;;;;;;27.33;21.67;;;;;;;;5122470;28;11436;-86
2021/11/26 05:05:59;;;;;;;;;21.33;19.00;;;;;;;;5103374;28;12501;-85
2021/11/26 05:08:25;;;;;;;;;26.33;23.67;;;;;;;;5121037;28;12501;-86
2021/11/26 05:10:52;;;;;;;;;27.00;25.33;;;;;;;;5122111;28;12306;-87
2021/11/26 05:13:22;;;;;;;;;26.33;23.00;;;;;;;;5121941;28;11779;-85
2021/11/26 05:15:47;;;;;;;;;27.67;26.00;;;;;;;;5121922;28;12225;-86
2021/11/26 05:18:13;;;;;;;;;31.33;30.33;;;;;;;;5122458;28;10793;-87
2021/11/26 05:20:38;;;;;;;;;29.00;25.67;;;;;;;;5122202;28;13506;-84
2021/11/26 05:23:03;;;;;;;;;30.33;26.00;;;;;;;;5133241;28;13301;-87
2021/11/26 05:25:29;;;;;;;;;27.00;26.00;;;;;;;;5123518;28;13421;-85
2021/11/26 05:27:55;;;;;;;;;24.67;24.67;;;;;;;;5103194;28;12499;-87
2021/11/26 05:30:20;;;;;;;;;26.00;24.00;;;;;;;;5122465;28;11566;-87
2021/11/26 05:32:48;;;;;;;;;29.00;26.67;;;;;;;;5122401;28;11620;-86
2021/11/26 05:35:13;;;;;;;;;29.33;24.33;;;;;;;;5122196;28;11663;-88
2021/11/26 05:37:40;;;;;;;;;34.00;24.00;;;;;;;;5121514;28;10361;-88
2021/11/26 05:40:06;;;;;;;;;25.67;23.33;;;;;;;;5122088;28;13368;-84
2021/11/26 05:42:31;;;;;;;;;23.67;23.00;;;;;;;;5121443;28;13311;-85
2021/11/26 05:44:57;;;;;;;;;26.33;23.00;;;;;;;;5103648;28;11706;-88
2021/11/26 05:47:22;;;;;;;;;25.33;24.33;;;;;;;;5121559;28;8885;-84
2021/11/26 05:49:47;;;;;;;;;22.33;22.00;;;;;;;;5120992;28;11787;-85
2021/11/26 05:52:13;;;;;;;;;30.00;26.00;;;;;;;;5121586;27;11406;-84
2021/11/26 05:54:38;;;;;;;;;16.00;12.00;;;;;;;;5122259;28;12337;-85
2021/11/26 05:57:04;;;;;;;;;25.00;20.00;;;;;;;;5123359;28;10469;-86
2021/11/26 05:59:30;;;;;;;;;26.00;24.67;;;;;;;;5123332;28;10606;-84
2021/11/26 06:01:58;;;;;;;;;23.33;21.33;;;;;;;;5123086;28;11430;-83
2021/11/26 06:04:23;;;;;;;;;24.00;22.00;;;;;;;;5125655;28;11718;-84
2021/11/26 06:06:48;;;;;;;;;26.33;23.33;;;;;;;;5127880;28;11372;-88
2021/11/26 06:09:13;;;;;;;;;29.33;20.67;;;;;;;;5127149;28;11390;-87
2021/11/26 06:11:39;;;;;;;;;19.67;19.00;;;;;;;;5133131;28;11518;-87
2021/11/26 06:14:04;;;;;;;;;26.00;19.33;;;;;;;;5129205;28;13192;-86
2021/11/26 06:16:29;;;;;;;;;16.67;16.67;;;;;;;;5121197;28;13403;-79
2021/11/26 06:18:55;;;;;;;;;22.33;20.33;;;;;;;;5121107;28;13203;-76
2021/11/26 06:21:20;;;;;;;;;29.33;21.00;;;;;;;;5120973;28;13514;-78
2021/11/26 06:23:45;;;;;;;;;31.00;26.33;;;;;;;;5121204;28;11573;-76
2021/11/26 06:26:11;;;;;;;;;22.67;22.67;;;;;;;;5120440;28;13466;-81
2021/11/26 06:28:36;;;;;;;;;32.33;30.67;;;;;;;;5120637;28;13297;-75
2021/11/26 06:31:01;;;;;;;;;27.67;27.00;;;;;;;;5121171;28;12390;-76
2021/11/26 06:33:29;;;;;;;;;32.00;27.00;;;;;;;;5120237;28;13457;-75
2021/11/26 06:35:54;;;;;;;;;29.67;26.67;;;;;;;;5120791;28;10253;-76
2021/11/26 06:38:20;;;;;;;;;30.00;24.33;;;;;;;;5101608;28;14448;-73
2021/11/26 06:40:45;;;;;;;;;32.00;24.33;;;;;;;;5120533;28;13435;-76
2021/11/26 06:43:11;;;;;;;;;37.33;34.67;;;;;;;;5119644;28;8792;-74
2021/11/26 06:45:36;;;;;;;;;24.67;23.00;;;;;;;;5119805;28;12832;-80
2021/11/26 06:48:01;;;;;;;;;26.00;24.00;;;;;;;;5119809;28;13231;-81
2021/11/26 06:50:26;;;;;;;;;27.67;24.33;;;;;;;;5119663;28;10341;-77
2021/11/26 06:52:52;;;;;;;;;38.33;30.67;;;;;;;;5119383;28;11513;-77
2021/11/26 06:55:17;;;;;;;;;27.33;25.67;;;;;;;;5100968;28;13554;-76
2021/11/26 06:57:42;;;;;;;;;30.67;24.67;;;;;;;;5119585;28;10399;-77
2021/11/26 07:00:10;;;;;;;;;31.33;26.33;;;;;;;;5119652;28;12181;-78
2021/11/26 07:02:35;;;;;;;;;22.50;21.25;;;;;;;;5120229;28;11451;-74
2021/11/26 07:05:01;;;;;;;;;27.50;22.00;;;;;;;;5120020;28;12210;-75
2021/11/26 07:07:26;;;;;;;;;28.00;24.67;;;;;;;;5100651;28;11783;-76
2021/11/26 07:09:52;;;;;;;;;26.67;24.00;;;;;;;;5117356;28;11388;-76
2021/11/26 07:12:17;;;;;;;;;28.33;27.33;;;;;;;;5119350;28;11551;-74
2021/11/26 07:14:43;;;;;;;;;25.00;23.67;;;;;;;;5119885;28;11401;-75
2021/11/26 07:17:09;;;;;;;;;25.00;23.00;;;;;;;;5119927;28;11542;-74
2021/11/26 07:19:36;;;;;;;;;26.67;23.33;;;;;;;;5119377;28;12146;-72
2021/11/26 07:22:02;;;;;;;;;29.00;27.33;;;;;;;;5119939;28;11650;-73
2021/11/26 07:24:27;;;;;;;;;21.25;20.25;;;;;;;;5119712;28;11528;-74
2021/11/26 07:26:52;;;;;;;;;28.00;26.33;;;;;;;;5119517;28;10342;-74
2021/11/26 07:29:17;;;;;;;;;28.25;25.50;;;;;;;;5119597;28;10586;-72
2021/11/26 07:31:43;;;;;;;;;18.00;17.00;;;;;;;;5117881;28;12783;-74
2021/11/26 07:34:08;;;;;;;;;30.67;27.33;;;;;;;;5119520;28;13764;-74
2021/11/26 07:36:33;;;;;;;;;25.67;24.00;;;;;;;;5117573;28;13649;-74
2021/11/26 07:38:59;;;;;;;;;36.67;31.00;;;;;;;;5118847;28;13402;-76
2021/11/26 07:41:25;;;;;;;;;28.67;27.33;;;;;;;;5119119;28;10924;-75
2021/11/26 07:43:50;;;;;;;;;26.00;25.33;;;;;;;;5120482;27;14496;-76
2021/11/26 07:46:15;;;;;;;;;22.00;20.67;;;;;;;;5118570;27;10596;-76
2021/11/26 07:48:41;;;;;;;;;26.75;25.50;;;;;;;;5118916;27;11608;-74
2021/11/26 07:51:06;;;;;;;;;27.67;26.67;;;;;;;;5118027;28;13055;-77
2021/11/26 07:53:32;;;;;;;;;33.67;26.00;;;;;;;;5119650;27;11380;-74
2021/11/26 07:55:58;;;;;;;;;26.67;24.67;;;;;;;;5118987;27;13287;-77
2021/11/26 07:58:23;;;;;;;;;26.33;25.67;;;;;;;;5119398;27;13208;-78
2021/11/26 08:00:48;;;;;;;;;31.33;28.00;;;;;;;;5120015;27;9674;-78
2021/11/26 08:03:15;;;;;;;;;28.00;25.67;;;;;;;;5122027;27;15291;-74
2021/11/26 08:05:41;;;;;;;;;25.67;24.33;;;;;;;;5118781;27;14600;-74
2021/11/26 08:08:09;;;;;;;;;31.50;24.25;;;;;;;;5138431;27;12726;-75
2021/11/26 08:10:35;;;;;;;;;26.25;25.25;;;;;;;;5139821;27;10421;-77
2021/11/26 08:13:00;;;;;;;;;24.25;20.00;;;;;;;;5139744;27;13774;-76
2021/11/26 08:15:26;;;;;;;;;29.25;26.50;;;;;;;;5139172;27;11547;-75
2021/11/26 08:17:51;;;;;;;;;23.00;23.00;;;;;;;;5123784;27;13708;-73
2021/11/26 08:20:17;;;;;;;;;24.50;24.25;;;;;;;;5120201;27;14605;-82
2021/11/26 08:22:43;;;;;;;;;25.25;24.00;;;;;;;;5135317;27;11474;-76
2021/11/26 08:25:09;;;;;;;;;27.00;24.50;;;;;;;;5142317;27;11487;-74
2021/11/26 08:27:35;;;;;;;;;28.00;25.25;;;;;;;;5136642;27;12154;-77
2021/11/26 08:30:00;;;;;;;;;26.25;23.50;;;;;;;;5138865;27;20367;-74
2021/11/26 08:32:26;;;;;;;;;27.75;25.75;;;;;;;;5056806;27;12893;-75
2021/11/26 08:34:51;;;;;;;;;25.75;24.75;;;;;;;;5103464;28;11944;-75
2021/11/26 08:37:17;;;;;;;;;26.75;23.50;;;;;;;;5121700;28;8782;-82
2021/11/26 08:39:42;;;;;;;;;27.50;22.50;;;;;;;;5121879;28;11746;-73
2021/11/26 08:42:07;;;;;;;;;25.00;22.75;;;;;;;;5121990;27;10329;-73
2021/11/26 08:44:33;;;;;;;;;30.00;27.25;;;;;;;;5141983;27;11597;-74
2021/11/26 08:46:58;;;;;;;;;27.50;24.00;;;;;;;;5141974;27;12446;-73
2021/11/26 08:49:24;;;;;;;;;24.00;24.00;;;;;;;;5142690;27;13231;-79
2021/11/26 08:51:49;;;;;;;;;25.75;23.25;;;;;;;;5122973;27;10988;-75
2021/11/26 08:54:15;;;;;;;;;27.25;25.25;;;;;;;;5142049;27;11365;-75
2021/11/26 08:56:42;;;;;;;;;31.25;26.00;;;;;;;;5142944;27;9583;-73
2021/11/26 08:59:07;;;;;;;;;27.00;24.50;;;;;;;;5141567;27;13770;-74
2021/11/26 09:01:33;;;;;;;;;21.50;21.50;;;;;;;;5141920;27;13229;-76
2021/11/26 09:03:59;;;;;;;;;26.75;26.00;;;;;;;;5141403;27;10699;-75
2021/11/26 09:06:25;;;;;;;;;30.50;24.50;;;;;;;;5141206;27;11576;-82
2021/11/26 09:08:50;;;;;;;;;23.25;20.50;;;;;;;;5030205;27;13229;-81
2021/11/26 09:11:16;;;;;;;;;27.25;23.00;;;;;;;;5094578;28;12528;-79
2021/11/26 09:13:41;;;;;;;;;17.50;15.00;;;;;;;;5122359;28;11850;-83
2021/11/26 09:16:07;;;;;;;;;15.75;14.50;;;;;;;;5120919;28;12173;-75
2021/11/26 09:18:32;;;;;;;;;12.25;11.50;;;;;;;;5121209;28;11537;-78
2021/11/26 09:20:58;;;;;;;;;15.75;12.50;;;;;;;;5120424;28;9513;-77
2021/11/26 09:23:24;;;;;;;;;14.75;14.25;;;;;;;;5121050;28;9590;-81
2021/11/26 09:25:50;;;;;;;;;10.00;10.00;;;;;;;;5120550;28;11673;-78
2021/11/26 09:28:15;;;;;;;;;14.00;9.75;;;;;;;;5090337;27;11533;-81
2021/11/26 09:30:41;;;;;;;;;14.75;13.50;;;;;;;;5140608;27;21777;-81
2021/11/26 09:33:06;;;;;;;;;13.25;12.00;;;;;;;;5120718;27;23553;-81
2021/11/26 09:35:32;;;;;;;;;17.50;14.75;;;;;;;;5140003;27;11541;-81
2021/11/26 09:37:59;;;;;;;;;15.25;14.25;;;;;;;;5141353;27;11419;-78
2021/11/26 09:40:25;;;;;;;;;17.50;15.75;;;;;;;;5139914;27;10457;-77
2021/11/26 09:42:50;;;;;;;;;14.00;11.50;;;;;;;;5139541;27;11526;-80
2021/11/26 09:45:19;;;;;;;;;12.25;12.25;;;;;;;;5105648;27;11405;-76
2021/11/26 09:47:44;;;;;;;;;18.25;15.00;;;;;;;;5129602;27;11457;-76
2021/11/26 09:50:10;;;;;;;;;11.00;11.00;;;;;;;;5118203;28;12228;-78
2021/11/26 09:52:39;;;;;;;;;21.25;16.75;;;;;;;;5118494;28;11103;-80
2021/11/26 09:55:05;;;;;;;;;15.00;14.75;;;;;;;;5120817;28;13285;-79
2021/11/26 09:57:30;;;;;;;;;14.00;14.00;;;;;;;;5101534;28;12655;-79
2021/11/26 09:59:56;;;;;;;;;14.50;14.25;;;;;;;;5119508;28;11541;-82
2021/11/26 10:02:22;;;;;;;;;12.25;11.25;;;;;;;;5120352;28;8922;-80
2021/11/26 10:05:00;;;;;;;;;10.75;9.00;;;;;;;;5119592;28;10648;-77
2021/11/26 10:07:26;;;;;;;;;16.75;14.00;;;;;;;;5122277;27;22632;-77
2021/11/26 10:09:52;;;;;;;;;19.25;16.50;;;;;;;;5138195;27;21573;-74
2021/11/26 10:12:18;;;;;;;;;18.50;16.00;;;;;;;;5136781;27;11535;-73
2021/11/26 10:14:44;;;;;;;;;24.00;22.00;;;;;;;;5139034;27;11625;-74
2021/11/26 10:17:15;;;;;;;;;22.25;20.50;;;;;;;;5140227;27;12590;-74
2021/11/26 10:19:46;;;;;;;;;18.25;15.50;;;;;;;;5139650;27;12792;-74
2021/11/26 10:22:20;;;;;;;;;18.25;15.75;;;;;;;;5129016;27;12252;-74
2021/11/26 10:25:16;;;;;;;;;15.00;15.00;;;;;;;;5140393;27;12169;-74
2021/11/26 10:27:56;;;;;;;;;17.75;13.50;;;;;;;;5138977;27;11846;-74
2021/11/26 10:30:25;;;;;;;;;13.00;13.00;;;;;;;;5139724;27;12754;-74
2021/11/26 10:32:50;;;;;;;;;11.75;11.75;;;;;;;;5140671;27;12357;-72
2021/11/26 10:35:16;;;;;;;;;16.75;14.00;;;;;;;;5140377;27;11515;-77
2021/11/26 10:37:41;;;;;;;;;13.75;13.25;;;;;;;;5140376;27;11442;-74
2021/11/26 10:40:19;;;;;;;;;15.00;13.50;;;;;;;;5139857;27;11554;-76
2021/11/26 10:42:45;;;;;;;;;12.25;12.25;;;;;;;;5140380;27;12691;-70
2021/11/26 10:45:17;;;;;;;;;16.75;14.00;;;;;;;;5140165;27;11924;-71
2021/11/26 10:47:55;;;;;;;;;11.25;9.75;;;;;;;;5140181;27;11523;-70
2021/11/26 10:56:46;;;;;;;;;11.75;10.25;;;;;;;;5138870;27;21346;-71
2021/11/26 10:58:38;;;;;;;;;14.75;14.25;;;;;;;;5137353;27;11397;-72
2021/11/26 11:01:05;;;;;;;;;14.25;11.50;;;;;;;;5088585;27;11472;-70
2021/11/26 11:03:30;;;;;;;;;11.00;9.25;;;;;;;;5141222;27;11388;-71
2021/11/26 11:05:57;;;;;;;;;15.00;11.25;;;;;;;;5129102;27;23437;-71
2021/11/26 11:08:23;;;;;;;;;11.75;11.50;;;;;;;;5128115;27;21747;-72
2021/11/26 11:10:48;;;;;;;;;14.00;12.25;;;;;;;;5139649;27;11536;-75
2021/11/26 11:13:15;;;;;;;;;11.50;10.75;;;;;;;;5139618;27;11523;-73
2021/11/26 11:15:42;;;;;;;;;13.00;10.25;;;;;;;;5139983;27;10714;-73
2021/11/26 11:18:09;;;;;;;;;14.00;14.00;;;;;;;;5139399;27;11093;-73
2021/11/26 11:20:35;;;;;;;;;14.00;11.75;;;;;;;;5137799;27;11702;-74
2021/11/26 11:23:01;;;;;;;;;11.00;10.00;;;;;;;;5138903;27;11188;-72
2021/11/26 11:25:27;;;;;;;;;10.75;10.00;;;;;;;;5138425;27;11543;-72
2021/11/26 11:27:53;;;;;;;;;9.50;8.25;;;;;;;;5137682;27;11352;-73
2021/11/26 11:30:19;;;;;;;;;9.25;7.00;;;;;;;;5136020;27;22849;-72
2021/11/26 11:32:44;;;;;;;;;12.50;9.25;;;;;;;;5137846;27;10533;-72
2021/11/26 11:35:11;;;;;;;;;7.00;7.00;;;;;;;;5138918;27;21764;-73
2021/11/26 11:37:37;;;;;;;;;7.50;6.25;;;;;;;;5138090;27;21609;-74
2021/11/26 11:40:08;;;;;;;;;9.00;9.00;;;;;;;;5124078;27;11341;-77
2021/11/26 11:42:35;;;;;;;;;11.25;10.75;;;;;;;;5118751;28;11568;-75
2021/11/26 11:45:07;;;;;;;;;8.50;7.75;;;;;;;;5127552;27;22307;-76
2021/11/26 11:47:32;;;;;;;;;12.25;10.25;;;;;;;;5133773;27;22386;-74
2021/11/26 11:50:27;;;;;;;;;11.00;10.75;;;;;;;;5137194;27;22499;-74
2021/11/26 11:53:00;;;;;;;;;12.00;10.00;;;;;;;;5122042;27;11788;-73
2021/11/26 11:55:30;;;;;;;;;12.50;12.00;;;;;;;;5141385;27;11476;-73
2021/11/26 11:58:15;;;;;;;;;12.00;11.00;;;;;;;;5123206;27;11405;-73
2021/11/26 12:00:42;;;;;;;;;18.00;17.25;;;;;;;;5140632;27;11375;-73
2021/11/26 12:03:15;;;;;;;;;18.75;18.50;;;;;;;;5141195;27;12165;-72
2021/11/26 12:05:42;;;;;;;;;24.00;20.50;;;;;;;;5140941;27;11464;-73
2021/11/26 12:08:16;;;;;;;;;28.75;23.00;;;;;;;;5140683;27;12480;-73
2021/11/26 12:10:46;;;;;;;;;29.00;24.25;;;;;;;;5141536;27;11639;-78
2021/11/26 12:13:19;;;;;;;;;21.75;18.50;;;;;;;;5138010;27;11778;-78
2021/11/26 12:15:45;;;;;;;;;28.00;22.75;;;;;;;;5124219;27;12525;-75
2021/11/26 12:18:10;;;;;;;;;28.25;26.75;;;;;;;;5100782;27;14198;-76
2021/11/26 12:24:56;;;;;;;;;26.00;23.00;;;;;;;;5199326;27;77762;-73
2021/11/26 12:27:23;;;;;;;;;16.50;15.00;;;;;;;;5185226;27;23072;-82
2021/11/26 12:29:51;;;;;;;;;17.50;16.50;;;;;;;;5178121;27;12790;-74
2021/11/26 12:32:23;;;;;;;;;20.50;20.50;;;;;;;;5178476;27;11779;-73
2021/11/26 12:34:50;;;;;;;;;23.75;22.00;;;;;;;;5178321;27;11510;-74
2021/11/26 12:37:17;;;;;;;;;25.25;23.25;;;;;;;;5178571;27;12826;-73
2021/11/26 12:39:43;;;;;;;;;24.50;21.75;;;;;;;;5178163;27;11495;-72
2021/11/26 12:42:09;;;;;;;;;30.25;22.75;;;;;;;;5158915;27;12573;-72
2021/11/26 12:44:34;;;;;;;;;24.00;22.25;;;;;;;;5174225;27;12325;-70
2021/11/26 12:47:13;;;;;;;;;23.25;19.75;;;;;;;;5180394;27;13757;-71
2021/11/26 12:52:09;;;;;;;;;25.25;24.75;;;;;;;;5192609;27;12484;-71
2021/11/26 12:54:36;;;;;;;;;25.50;22.25;;;;;;;;5169627;27;13548;-73
2021/11/26 12:57:06;;;;;;;;;22.75;22.75;;;;;;;;5138065;27;11602;-73
2021/11/26 12:59:33;;;;;;;;;22.75;19.50;;;;;;;;5156852;27;11603;-72
2021/11/26 13:01:59;;;;;;;;;24.25;21.50;;;;;;;;5174144;27;11485;-73
2021/11/26 13:04:24;;;;;;;;;23.50;21.75;;;;;;;;5187568;27;11559;-72
2021/11/26 13:07:00;;;;;;;;;26.25;23.75;;;;;;;;5178535;27;11546;-72
2021/11/26 13:09:25;;;;;;;;;26.50;24.00;;;;;;;;5185790;27;10455;-71
2021/11/26 13:11:50;;;;;;;;;21.00;17.50;;;;;;;;5166033;27;12452;-73
2021/11/26 13:14:16;;;;;;;;;12.75;12.00;;;;;;;;5186919;27;12171;-74
2021/11/26 13:16:41;;;;;;;;;18.25;18.25;;;;;;;;5170384;27;13357;-75
2021/11/26 13:19:10;;;;;;;;;19.50;18.00;;;;;;;;5178983;27;11532;-75
2021/11/26 13:21:36;;;;;;;;;18.25;17.25;;;;;;;;5176292;27;11597;-76
2021/11/26 13:24:03;;;;;;;;;19.75;17.25;;;;;;;;5175191;27;11512;-76
2021/11/26 13:26:29;;;;;;;;;23.75;22.25;;;;;;;;5174670;27;8919;-77
2021/11/26 13:28:56;;;;;;;;;19.00;18.75;;;;;;;;5183495;27;12250;-77
2021/11/26 13:31:23;;;;;;;;;27.25;24.25;;;;;;;;5187972;27;12689;-75
2021/11/26 13:33:49;;;;;;;;;19.50;18.75;;;;;;;;5187715;27;12446;-75
2021/11/26 13:36:19;;;;;;;;;18.00;17.50;;;;;;;;5171692;27;12279;-76
2021/11/26 13:38:47;;;;;;;;;19.00;18.00;;;;;;;;5172373;27;11778;-77
2021/11/26 13:41:20;;;;;;;;;22.25;20.00;;;;;;;;5165927;27;11572;-75
2021/11/26 13:43:48;;;;;;;;;22.25;20.50;;;;;;;;5162029;27;12856;-74
2021/11/26 13:46:23;;;;;;;;;24.50;22.50;;;;;;;;5162871;27;11791;-76
2021/11/26 13:48:49;;;;;;;;;21.00;20.75;;;;;;;;5163013;27;11637;-76
2021/11/26 13:51:16;;;;;;;;;20.50;19.00;;;;;;;;5162318;27;11514;-75
2021/11/26 13:53:42;;;;;;;;;18.75;17.00;;;;;;;;5162477;27;12314;-76
2021/11/26 13:56:08;;;;;;;;;23.75;21.25;;;;;;;;5162785;27;12409;-76
2021/11/26 13:58:33;;;;;;;;;19.25;18.25;;;;;;;;5162330;27;13377;-75
2021/11/26 14:00:59;;;;;;;;;18.50;17.50;;;;;;;;5162927;27;11913;-76
2021/11/26 14:03:33;;;;;;;;;18.75;18.75;;;;;;;;5161779;27;11444;-74
2021/11/26 14:06:08;;;;;;;;;18.00;16.50;;;;;;;;5160694;27;10442;-74
2021/11/26 14:08:40;;;;;;;;;22.75;18.00;;;;;;;;5162829;27;11455;-75
2021/11/26 14:11:07;;;;;;;;;20.25;19.25;;;;;;;;5162255;27;13500;-75
2021/11/26 14:13:33;;;;;;;;;21.50;20.00;;;;;;;;5162319;27;11654;-75
2021/11/26 14:16:02;;;;;;;;;20.50;17.75;;;;;;;;5161731;27;12312;-74
2021/11/26 14:18:28;;;;;;;;;18.75;17.25;;;;;;;;5162417;27;12578;-75
2021/11/26 14:21:01;;;;;;;;;19.50;16.75;;;;;;;;5163373;27;13870;-75
2021/11/26 14:23:26;;;;;;;;;18.00;17.25;;;;;;;;5162893;27;10432;-77
2021/11/26 14:25:55;;;;;;;;;24.00;22.75;;;;;;;;5163656;27;11588;-74
2021/11/26 14:28:21;;;;;;;;;24.75;24.00;;;;;;;;5161939;27;12295;-75